sensor_id;sensor_type;location;lat;lon;timestamp;P1;durP1;ratioP1;P2;durP2;ratioP2
40022;SDS011;25713;-35.352;149.036;2023-11-22T00:00:41;1.23;;;0.88;;
40022;SDS011;25713;-35.352;149.036;2023-11-22T00:03:11;0.80;;;0.70;;
40022;SDS011;25713;-35.352;149.036;2023-11-22T00:05:41;1.23;;;1.00;;
40022;SDS011;25713;-35.352;149.036;2023-11-22T00:08:10;0.82;;;0.77;;
40022;SDS011;25713;-35.352;149.036;2023-11-22T00:10:40;1.08;;;0.80;;
40022;SDS011;25713;-35.352;149.036;2023-11-22T00:13:09;1.55;;;0.80;;
40022;SDS011;25713;-35.352;149.036;2023-11-22T00:15:40;1.52;;;0.82;;
40022;SDS011;25713;-35.352;149.036;2023-11-22T00:18:10;1.63;;;0.90;;
40022;SDS011;25713;-35.352;149.036;2023-11-22T00:20:40;1.52;;;0.75;;
40022;SDS011;25713;-35.352;149.036;2023-11-22T00:23:09;2.78;;;0.60;;
40022;SDS011;25713;-35.352;149.036;2023-11-22T00:25:39;1.55;;;0.85;;
40022;SDS011;25713;-35.352;149.036;2023-11-22T00:28:08;0.98;;;0.80;;
40022;SDS011;25713;-35.352;149.036;2023-11-22T00:30:41;0.80;;;0.70;;
40022;SDS011;25713;-35.352;149.036;2023-11-22T00:33:11;0.70;;;0.60;;
40022;SDS011;25713;-35.352;149.036;2023-11-22T00:35:41;0.82;;;0.80;;
40022;SDS011;25713;-35.352;149.036;2023-11-22T00:38:10;1.20;;;1.05;;
40022;SDS011;25713;-35.352;149.036;2023-11-22T00:40:39;1.30;;;0.82;;
40022;SDS011;25713;-35.352;149.036;2023-11-22T00:43:09;1.13;;;0.77;;
40022;SDS011;25713;-35.352;149.036;2023-11-22T00:45:41;0.88;;;0.68;;
40022;SDS011;25713;-35.352;149.036;2023-11-22T00:48:11;1.98;;;0.60;;
40022;SDS011;25713;-35.352;149.036;2023-11-22T00:50:41;2.38;;;0.80;;
40022;SDS011;25713;-35.352;149.036;2023-11-22T00:53:10;0.70;;;0.70;;
40022;SDS011;25713;-35.352;149.036;2023-11-22T00:55:39;0.70;;;0.70;;
40022;SDS011;25713;-35.352;149.036;2023-11-22T00:58:10;0.98;;;0.77;;
40022;SDS011;25713;-35.352;149.036;2023-11-22T01:00:43;1.20;;;0.80;;
40022;SDS011;25713;-35.352;149.036;2023-11-22T01:03:12;0.88;;;0.70;;
40022;SDS011;25713;-35.352;149.036;2023-11-22T01:05:42;1.67;;;0.60;;
40022;SDS011;25713;-35.352;149.036;2023-11-22T01:08:11;0.65;;;0.65;;
40022;SDS011;25713;-35.352;149.036;2023-11-22T01:10:41;0.60;;;0.60;;
40022;SDS011;25713;-35.352;149.036;2023-11-22T01:13:11;1.05;;;0.70;;
40022;SDS011;25713;-35.352;149.036;2023-11-22T01:15:43;0.75;;;0.75;;
40022;SDS011;25713;-35.352;149.036;2023-11-22T01:18:13;1.58;;;0.82;;
40022;SDS011;25713;-35.352;149.036;2023-11-22T01:20:43;1.10;;;0.90;;
40022;SDS011;25713;-35.352;149.036;2023-11-22T01:23:12;0.88;;;0.75;;
40022;SDS011;25713;-35.352;149.036;2023-11-22T01:25:42;1.45;;;0.80;;
40022;SDS011;25713;-35.352;149.036;2023-11-22T01:28:11;1.83;;;0.85;;
40022;SDS011;25713;-35.352;149.036;2023-11-22T01:30:44;1.60;;;0.80;;
40022;SDS011;25713;-35.352;149.036;2023-11-22T01:33:14;0.95;;;0.80;;
40022;SDS011;25713;-35.352;149.036;2023-11-22T01:35:44;0.80;;;0.75;;
40022;SDS011;25713;-35.352;149.036;2023-11-22T01:38:13;1.23;;;0.80;;
40022;SDS011;25713;-35.352;149.036;2023-11-22T01:40:46;1.00;;;0.80;;
40022;SDS011;25713;-35.352;149.036;2023-11-22T01:43:17;1.67;;;0.70;;
40022;SDS011;25713;-35.352;149.036;2023-11-22T01:45:51;0.95;;;0.80;;
40022;SDS011;25713;-35.352;149.036;2023-11-22T01:48:21;1.85;;;0.80;;
40022;SDS011;25713;-35.352;149.036;2023-11-22T01:50:52;2.25;;;0.80;;
40022;SDS011;25713;-35.352;149.036;2023-11-22T01:53:21;1.85;;;0.80;;
40022;SDS011;25713;-35.352;149.036;2023-11-22T01:55:52;0.90;;;0.70;;
40022;SDS011;25713;-35.352;149.036;2023-11-22T01:58:21;0.70;;;0.70;;
40022;SDS011;25713;-35.352;149.036;2023-11-22T02:00:54;1.50;;;0.80;;
40022;SDS011;25713;-35.352;149.036;2023-11-22T02:03:25;1.92;;;0.90;;
40022;SDS011;25713;-35.352;149.036;2023-11-22T02:05:55;0.75;;;0.70;;
40022;SDS011;25713;-35.352;149.036;2023-11-22T02:08:24;1.02;;;0.73;;
40022;SDS011;25713;-35.352;149.036;2023-11-22T02:11:00;3.08;;;0.70;;
40022;SDS011;25713;-35.352;149.036;2023-11-22T02:13:29;1.60;;;0.80;;
40022;SDS011;25713;-35.352;149.036;2023-11-22T02:16:02;1.45;;;0.90;;
40022;SDS011;25713;-35.352;149.036;2023-11-22T02:18:32;1.13;;;0.90;;
40022;SDS011;25713;-35.352;149.036;2023-11-22T02:21:01;0.70;;;0.70;;
40022;SDS011;25713;-35.352;149.036;2023-11-22T02:23:34;0.90;;;0.80;;
40022;SDS011;25713;-35.352;149.036;2023-11-22T02:26:03;1.27;;;0.82;;
40022;SDS011;25713;-35.352;149.036;2023-11-22T02:28:33;1.23;;;0.90;;
40022;SDS011;25713;-35.352;149.036;2023-11-22T02:31:03;2.47;;;0.82;;
40022;SDS011;25713;-35.352;149.036;2023-11-22T02:33:32;1.08;;;0.90;;
40022;SDS011;25713;-35.352;149.036;2023-11-22T02:36:02;1.88;;;0.90;;
40022;SDS011;25713;-35.352;149.036;2023-11-22T02:38:34;1.27;;;0.85;;
40022;SDS011;25713;-35.352;149.036;2023-11-22T02:41:03;1.98;;;0.90;;
40022;SDS011;25713;-35.352;149.036;2023-11-22T02:43:32;1.20;;;0.80;;
40022;SDS011;25713;-35.352;149.036;2023-11-22T02:46:02;2.03;;;0.80;;
40022;SDS011;25713;-35.352;149.036;2023-11-22T02:48:31;0.98;;;0.88;;
40022;SDS011;25713;-35.352;149.036;2023-11-22T02:51:01;0.98;;;0.80;;
40022;SDS011;25713;-35.352;149.036;2023-11-22T02:53:31;1.77;;;0.80;;
40022;SDS011;25713;-35.352;149.036;2023-11-22T02:56:03;1.80;;;0.95;;
40022;SDS011;25713;-35.352;149.036;2023-11-22T02:58:34;1.83;;;0.80;;
40022;SDS011;25713;-35.352;149.036;2023-11-22T03:01:03;2.35;;;1.00;;
40022;SDS011;25713;-35.352;149.036;2023-11-22T03:03:32;1.48;;;0.85;;
40022;SDS011;25713;-35.352;149.036;2023-11-22T03:06:02;2.30;;;0.98;;
40022;SDS011;25713;-35.352;149.036;2023-11-22T03:08:32;1.10;;;0.90;;
40022;SDS011;25713;-35.352;149.036;2023-11-22T03:11:03;1.48;;;1.10;;
40022;SDS011;25713;-35.352;149.036;2023-11-22T03:13:33;1.33;;;0.93;;
40022;SDS011;25713;-35.352;149.036;2023-11-22T03:16:02;1.77;;;0.82;;
40022;SDS011;25713;-35.352;149.036;2023-11-22T03:18:32;1.23;;;0.85;;
40022;SDS011;25713;-35.352;149.036;2023-11-22T03:21:02;0.85;;;0.70;;
40022;SDS011;25713;-35.352;149.036;2023-11-22T03:23:31;0.80;;;0.70;;
40022;SDS011;25713;-35.352;149.036;2023-11-22T03:26:02;1.75;;;0.80;;
40022;SDS011;25713;-35.352;149.036;2023-11-22T03:28:32;1.00;;;0.70;;
40022;SDS011;25713;-35.352;149.036;2023-11-22T03:31:01;0.88;;;0.88;;
40022;SDS011;25713;-35.352;149.036;2023-11-22T03:33:31;2.42;;;0.85;;
40022;SDS011;25713;-35.352;149.036;2023-11-22T03:36:00;1.92;;;0.98;;
40022;SDS011;25713;-35.352;149.036;2023-11-22T03:38:31;1.70;;;0.77;;
40022;SDS011;25713;-35.352;149.036;2023-11-22T03:41:04;1.90;;;0.95;;
40022;SDS011;25713;-35.352;149.036;2023-11-22T03:43:34;1.30;;;0.90;;
40022;SDS011;25713;-35.352;149.036;2023-11-22T03:46:03;1.88;;;1.20;;
40022;SDS011;25713;-35.352;149.036;2023-11-22T03:48:33;1.30;;;1.02;;
40022;SDS011;25713;-35.352;149.036;2023-11-22T03:51:02;0.90;;;0.90;;
40022;SDS011;25713;-35.352;149.036;2023-11-22T03:53:32;1.00;;;0.80;;
40022;SDS011;25713;-35.352;149.036;2023-11-22T03:56:03;0.80;;;0.80;;
40022;SDS011;25713;-35.352;149.036;2023-11-22T03:58:33;1.52;;;0.95;;
40022;SDS011;25713;-35.352;149.036;2023-11-22T04:01:02;2.28;;;1.00;;
40022;SDS011;25713;-35.352;149.036;2023-11-22T04:03:31;1.10;;;1.00;;
40022;SDS011;25713;-35.352;149.036;2023-11-22T04:06:01;0.93;;;0.88;;
40022;SDS011;25713;-35.352;149.036;2023-11-22T04:08:30;1.10;;;0.90;;
40022;SDS011;25713;-35.352;149.036;2023-11-22T04:11:00;1.35;;;0.82;;
40022;SDS011;25713;-35.352;149.036;2023-11-22T04:13:32;0.95;;;0.85;;
40022;SDS011;25713;-35.352;149.036;2023-11-22T04:16:02;1.05;;;0.95;;
40022;SDS011;25713;-35.352;149.036;2023-11-22T04:18:32;0.95;;;0.90;;
40022;SDS011;25713;-35.352;149.036;2023-11-22T04:21:01;1.45;;;1.05;;
40022;SDS011;25713;-35.352;149.036;2023-11-22T04:23:31;1.73;;;0.80;;
40022;SDS011;25713;-35.352;149.036;2023-11-22T04:26:01;0.60;;;0.60;;
40022;SDS011;25713;-35.352;149.036;2023-11-22T04:28:34;4.45;;;0.90;;
40022;SDS011;25713;-35.352;149.036;2023-11-22T04:31:03;1.00;;;0.85;;
40022;SDS011;25713;-35.352;149.036;2023-11-22T04:33:33;1.02;;;0.90;;
40022;SDS011;25713;-35.352;149.036;2023-11-22T04:36:03;1.45;;;0.90;;
40022;SDS011;25713;-35.352;149.036;2023-11-22T04:38:32;1.08;;;0.80;;
40022;SDS011;25713;-35.352;149.036;2023-11-22T04:41:01;1.88;;;1.00;;
40022;SDS011;25713;-35.352;149.036;2023-11-22T04:43:34;0.80;;;0.73;;
40022;SDS011;25713;-35.352;149.036;2023-11-22T04:46:04;1.75;;;0.80;;
40022;SDS011;25713;-35.352;149.036;2023-11-22T04:48:34;1.05;;;0.90;;
40022;SDS011;25713;-35.352;149.036;2023-11-22T04:51:04;2.03;;;0.68;;
40022;SDS011;25713;-35.352;149.036;2023-11-22T04:53:33;0.95;;;0.90;;
40022;SDS011;25713;-35.352;149.036;2023-11-22T04:56:06;1.00;;;0.80;;
40022;SDS011;25713;-35.352;149.036;2023-11-22T04:58:36;1.00;;;0.90;;
40022;SDS011;25713;-35.352;149.036;2023-11-22T05:01:05;1.20;;;0.90;;
40022;SDS011;25713;-35.352;149.036;2023-11-22T05:03:34;2.05;;;0.90;;
40022;SDS011;25713;-35.352;149.036;2023-11-22T05:06:04;1.15;;;0.70;;
40022;SDS011;25713;-35.352;149.036;2023-11-22T05:08:34;1.38;;;0.85;;
40022;SDS011;25713;-35.352;149.036;2023-11-22T05:11:06;1.63;;;1.10;;
40022;SDS011;25713;-35.352;149.036;2023-11-22T05:13:36;4.55;;;1.00;;
40022;SDS011;25713;-35.352;149.036;2023-11-22T05:16:06;1.35;;;1.00;;
40022;SDS011;25713;-35.352;149.036;2023-11-22T05:18:35;1.95;;;0.90;;
40022;SDS011;25713;-35.352;149.036;2023-11-22T05:21:05;1.33;;;0.80;;
40022;SDS011;25713;-35.352;149.036;2023-11-22T05:23:34;0.82;;;0.80;;
40022;SDS011;25713;-35.352;149.036;2023-11-22T05:26:06;0.80;;;0.80;;
40022;SDS011;25713;-35.352;149.036;2023-11-22T05:28:36;1.67;;;1.10;;
40022;SDS011;25713;-35.352;149.036;2023-11-22T05:31:05;0.98;;;0.98;;
40022;SDS011;25713;-35.352;149.036;2023-11-22T05:33:35;2.00;;;0.85;;
40022;SDS011;25713;-35.352;149.036;2023-11-22T05:36:05;2.63;;;1.10;;
40022;SDS011;25713;-35.352;149.036;2023-11-22T05:38:35;1.25;;;0.98;;
40022;SDS011;25713;-35.352;149.036;2023-11-22T05:41:07;0.90;;;0.70;;
40022;SDS011;25713;-35.352;149.036;2023-11-22T05:43:36;1.50;;;1.10;;
40022;SDS011;25713;-35.352;149.036;2023-11-22T05:46:06;2.03;;;0.85;;
40022;SDS011;25713;-35.352;149.036;2023-11-22T05:48:36;1.17;;;0.90;;
40022;SDS011;25713;-35.352;149.036;2023-11-22T05:51:05;1.92;;;0.95;;
40022;SDS011;25713;-35.352;149.036;2023-11-22T05:53:34;1.55;;;0.82;;
40022;SDS011;25713;-35.352;149.036;2023-11-22T05:56:08;3.22;;;1.05;;
40022;SDS011;25713;-35.352;149.036;2023-11-22T05:58:37;1.05;;;1.00;;
40022;SDS011;25713;-35.352;149.036;2023-11-22T06:01:07;1.50;;;1.00;;
40022;SDS011;25713;-35.352;149.036;2023-11-22T06:03:36;1.20;;;1.02;;
40022;SDS011;25713;-35.352;149.036;2023-11-22T06:06:06;3.10;;;1.10;;
40022;SDS011;25713;-35.352;149.036;2023-11-22T06:08:35;2.45;;;1.00;;
40022;SDS011;25713;-35.352;149.036;2023-11-22T06:11:08;1.10;;;1.00;;
40022;SDS011;25713;-35.352;149.036;2023-11-22T06:13:38;1.13;;;0.90;;
40022;SDS011;25713;-35.352;149.036;2023-11-22T06:16:07;2.42;;;1.20;;
40022;SDS011;25713;-35.352;149.036;2023-11-22T06:18:37;1.83;;;1.33;;
40022;SDS011;25713;-35.352;149.036;2023-11-22T06:21:06;1.05;;;1.02;;
40022;SDS011;25713;-35.352;149.036;2023-11-22T06:23:36;1.30;;;1.20;;
40022;SDS011;25713;-35.352;149.036;2023-11-22T06:26:08;1.50;;;1.10;;
40022;SDS011;25713;-35.352;149.036;2023-11-22T06:28:38;1.15;;;1.05;;
40022;SDS011;25713;-35.352;149.036;2023-11-22T06:31:07;3.70;;;1.25;;
40022;SDS011;25713;-35.352;149.036;2023-11-22T06:33:37;1.52;;;1.42;;
40022;SDS011;25713;-35.352;149.036;2023-11-22T06:36:06;1.63;;;1.20;;
40022;SDS011;25713;-35.352;149.036;2023-11-22T06:38:36;1.58;;;1.48;;
40022;SDS011;25713;-35.352;149.036;2023-11-22T06:41:09;2.60;;;1.50;;
40022;SDS011;25713;-35.352;149.036;2023-11-22T06:43:39;1.40;;;1.30;;
40022;SDS011;25713;-35.352;149.036;2023-11-22T06:46:08;3.17;;;1.50;;
40022;SDS011;25713;-35.352;149.036;2023-11-22T06:48:37;2.40;;;1.48;;
40022;SDS011;25713;-35.352;149.036;2023-11-22T06:51:08;4.38;;;1.60;;
40022;SDS011;25713;-35.352;149.036;2023-11-22T06:53:37;3.95;;;2.17;;
40022;SDS011;25713;-35.352;149.036;2023-11-22T06:56:09;2.25;;;1.90;;
40022;SDS011;25713;-35.352;149.036;2023-11-22T06:58:38;3.22;;;2.10;;
40022;SDS011;25713;-35.352;149.036;2023-11-22T07:01:08;3.65;;;2.05;;
40022;SDS011;25713;-35.352;149.036;2023-11-22T07:03:38;2.17;;;1.92;;
40022;SDS011;25713;-35.352;149.036;2023-11-22T07:06:07;3.58;;;2.30;;
40022;SDS011;25713;-35.352;149.036;2023-11-22T07:08:37;4.07;;;2.55;;
40022;SDS011;25713;-35.352;149.036;2023-11-22T07:11:08;3.78;;;2.15;;
40022;SDS011;25713;-35.352;149.036;2023-11-22T07:13:38;6.07;;;2.50;;
40022;SDS011;25713;-35.352;149.036;2023-11-22T07:16:07;3.63;;;2.50;;
40022;SDS011;25713;-35.352;149.036;2023-11-22T07:18:37;3.70;;;2.80;;
40022;SDS011;25713;-35.352;149.036;2023-11-22T07:21:06;3.60;;;2.70;;
40022;SDS011;25713;-35.352;149.036;2023-11-22T07:23:36;4.78;;;2.90;;
40022;SDS011;25713;-35.352;149.036;2023-11-22T07:26:05;5.82;;;3.00;;
40022;SDS011;25713;-35.352;149.036;2023-11-22T07:28:37;4.70;;;2.80;;
40022;SDS011;25713;-35.352;149.036;2023-11-22T07:31:07;4.78;;;3.13;;
40022;SDS011;25713;-35.352;149.036;2023-11-22T07:33:37;4.80;;;3.00;;
40022;SDS011;25713;-35.352;149.036;2023-11-22T07:36:06;5.55;;;3.05;;
40022;SDS011;25713;-35.352;149.036;2023-11-22T07:38:39;5.20;;;3.20;;
40022;SDS011;25713;-35.352;149.036;2023-11-22T07:41:11;4.93;;;3.15;;
40022;SDS011;25713;-35.352;149.036;2023-11-22T07:43:41;5.03;;;3.35;;
40022;SDS011;25713;-35.352;149.036;2023-11-22T07:46:10;5.57;;;2.75;;
40022;SDS011;25713;-35.352;149.036;2023-11-22T07:48:40;5.70;;;3.40;;
40022;SDS011;25713;-35.352;149.036;2023-11-22T07:51:09;6.07;;;2.95;;
40022;SDS011;25713;-35.352;149.036;2023-11-22T07:53:40;6.72;;;3.20;;
40022;SDS011;25713;-35.352;149.036;2023-11-22T07:56:12;6.38;;;3.40;;
40022;SDS011;25713;-35.352;149.036;2023-11-22T07:58:41;4.05;;;2.95;;
40022;SDS011;25713;-35.352;149.036;2023-11-22T08:01:11;4.60;;;2.95;;
40022;SDS011;25713;-35.352;149.036;2023-11-22T08:03:40;4.03;;;3.17;;
40022;SDS011;25713;-35.352;149.036;2023-11-22T08:06:10;3.58;;;2.70;;
40022;SDS011;25713;-35.352;149.036;2023-11-22T08:08:39;5.55;;;3.58;;
40022;SDS011;25713;-35.352;149.036;2023-11-22T08:11:09;5.05;;;2.75;;
40022;SDS011;25713;-35.352;149.036;2023-11-22T08:13:40;4.97;;;3.15;;
40022;SDS011;25713;-35.352;149.036;2023-11-22T08:16:10;4.47;;;3.08;;
40022;SDS011;25713;-35.352;149.036;2023-11-22T08:18:40;5.00;;;3.00;;
40022;SDS011;25713;-35.352;149.036;2023-11-22T08:21:09;7.57;;;3.13;;
40022;SDS011;25713;-35.352;149.036;2023-11-22T08:23:39;4.63;;;3.00;;
40022;SDS011;25713;-35.352;149.036;2023-11-22T08:26:08;5.70;;;3.50;;
40022;SDS011;25713;-35.352;149.036;2023-11-22T08:28:40;5.07;;;2.90;;
40022;SDS011;25713;-35.352;149.036;2023-11-22T08:31:09;4.15;;;3.03;;
40022;SDS011;25713;-35.352;149.036;2023-11-22T08:33:39;4.35;;;2.97;;
40022;SDS011;25713;-35.352;149.036;2023-11-22T08:36:09;4.05;;;3.28;;
40022;SDS011;25713;-35.352;149.036;2023-11-22T08:38:38;4.57;;;3.40;;
40022;SDS011;25713;-35.352;149.036;2023-11-22T08:41:08;7.20;;;3.10;;
40022;SDS011;25713;-35.352;149.036;2023-11-22T08:43:39;4.65;;;3.50;;
40022;SDS011;25713;-35.352;149.036;2023-11-22T08:46:09;3.75;;;3.13;;
40022;SDS011;25713;-35.352;149.036;2023-11-22T08:48:38;4.88;;;3.40;;
40022;SDS011;25713;-35.352;149.036;2023-11-22T08:51:08;6.90;;;2.95;;
40022;SDS011;25713;-35.352;149.036;2023-11-22T08:53:37;3.30;;;2.92;;
40022;SDS011;25713;-35.352;149.036;2023-11-22T08:56:07;4.22;;;3.03;;
40022;SDS011;25713;-35.352;149.036;2023-11-22T08:58:36;6.20;;;3.15;;
40022;SDS011;25713;-35.352;149.036;2023-11-22T09:01:07;4.78;;;2.60;;
40022;SDS011;25713;-35.352;149.036;2023-11-22T09:03:37;6.70;;;3.67;;
40022;SDS011;25713;-35.352;149.036;2023-11-22T09:06:06;3.95;;;2.85;;
40022;SDS011;25713;-35.352;149.036;2023-11-22T09:08:36;4.70;;;3.13;;
40022;SDS011;25713;-35.352;149.036;2023-11-22T09:11:06;4.10;;;2.97;;
40022;SDS011;25713;-35.352;149.036;2023-11-22T09:13:35;3.80;;;3.10;;
40022;SDS011;25713;-35.352;149.036;2023-11-22T09:16:07;5.07;;;2.65;;
40022;SDS011;25713;-35.352;149.036;2023-11-22T09:18:37;6.25;;;3.00;;
40022;SDS011;25713;-35.352;149.036;2023-11-22T09:21:06;5.93;;;3.30;;
40022;SDS011;25713;-35.352;149.036;2023-11-22T09:23:36;5.88;;;3.47;;
40022;SDS011;25713;-35.352;149.036;2023-11-22T09:26:05;6.63;;;3.60;;
40022;SDS011;25713;-35.352;149.036;2023-11-22T09:28:35;5.88;;;3.10;;
40022;SDS011;25713;-35.352;149.036;2023-11-22T09:31:04;7.65;;;3.83;;
40022;SDS011;25713;-35.352;149.036;2023-11-22T09:33:35;3.53;;;3.03;;
40022;SDS011;25713;-35.352;149.036;2023-11-22T09:36:05;4.22;;;3.20;;
40022;SDS011;25713;-35.352;149.036;2023-11-22T09:38:35;5.72;;;3.38;;
40022;SDS011;25713;-35.352;149.036;2023-11-22T09:41:04;5.00;;;3.15;;
40022;SDS011;25713;-35.352;149.036;2023-11-22T09:43:34;4.90;;;3.38;;
40022;SDS011;25713;-35.352;149.036;2023-11-22T09:46:04;5.35;;;3.45;;
40022;SDS011;25713;-35.352;149.036;2023-11-22T09:48:36;5.68;;;3.53;;
40022;SDS011;25713;-35.352;149.036;2023-11-22T09:51:09;5.53;;;3.47;;
40022;SDS011;25713;-35.352;149.036;2023-11-22T09:53:48;3.97;;;3.30;;
40022;SDS011;25713;-35.352;149.036;2023-11-22T09:56:23;4.93;;;3.60;;
40022;SDS011;25713;-35.352;149.036;2023-11-22T09:58:53;4.82;;;3.50;;
40022;SDS011;25713;-35.352;149.036;2023-11-22T10:01:25;5.80;;;3.67;;
40022;SDS011;25713;-35.352;149.036;2023-11-22T10:06:24;6.25;;;3.50;;
40022;SDS011;25713;-35.352;149.036;2023-11-22T10:08:53;7.25;;;4.07;;
40022;SDS011;25713;-35.352;149.036;2023-11-22T10:11:23;6.40;;;3.85;;
40022;SDS011;25713;-35.352;149.036;2023-11-22T10:13:52;6.30;;;3.70;;
40022;SDS011;25713;-35.352;149.036;2023-11-22T10:16:22;5.05;;;3.33;;
40022;SDS011;25713;-35.352;149.036;2023-11-22T10:18:53;5.90;;;3.47;;
40022;SDS011;25713;-35.352;149.036;2023-11-22T10:21:23;4.72;;;3.47;;
40022;SDS011;25713;-35.352;149.036;2023-11-22T10:23:53;5.20;;;3.83;;
40022;SDS011;25713;-35.352;149.036;2023-11-22T10:26:23;5.53;;;3.80;;
40022;SDS011;25713;-35.352;149.036;2023-11-22T10:28:52;6.35;;;3.65;;
40022;SDS011;25713;-35.352;149.036;2023-11-22T10:31:23;5.78;;;4.03;;
40022;SDS011;25713;-35.352;149.036;2023-11-22T10:33:56;5.15;;;3.60;;
40022;SDS011;25713;-35.352;149.036;2023-11-22T10:36:26;6.90;;;3.92;;
40022;SDS011;25713;-35.352;149.036;2023-11-22T10:38:56;6.03;;;3.75;;
40022;SDS011;25713;-35.352;149.036;2023-11-22T10:41:27;6.40;;;3.90;;
40022;SDS011;25713;-35.352;149.036;2023-11-22T10:43:56;7.07;;;3.55;;
40022;SDS011;25713;-35.352;149.036;2023-11-22T10:46:31;6.60;;;3.90;;
40022;SDS011;25713;-35.352;149.036;2023-11-22T10:49:00;6.78;;;4.20;;
40022;SDS011;25713;-35.352;149.036;2023-11-22T10:51:31;6.85;;;3.70;;
40022;SDS011;25713;-35.352;149.036;2023-11-22T10:54:01;6.45;;;4.30;;
40022;SDS011;25713;-35.352;149.036;2023-11-22T10:56:33;4.80;;;3.47;;
40022;SDS011;25713;-35.352;149.036;2023-11-22T10:59:07;5.13;;;3.72;;
40022;SDS011;25713;-35.352;149.036;2023-11-22T11:01:43;6.07;;;3.78;;
40022;SDS011;25713;-35.352;149.036;2023-11-22T11:04:18;5.88;;;3.85;;
40022;SDS011;25713;-35.352;149.036;2023-11-22T11:06:51;6.25;;;4.22;;
40022;SDS011;25713;-35.352;149.036;2023-11-22T11:09:23;7.78;;;4.40;;
40022;SDS011;25713;-35.352;149.036;2023-11-22T11:11:54;5.60;;;4.13;;
40022;SDS011;25713;-35.352;149.036;2023-11-22T11:14:25;6.72;;;4.25;;
40022;SDS011;25713;-35.352;149.036;2023-11-22T11:16:58;6.30;;;4.40;;
40022;SDS011;25713;-35.352;149.036;2023-11-22T11:21:57;5.10;;;4.10;;
40022;SDS011;25713;-35.352;149.036;2023-11-22T11:24:28;5.65;;;4.40;;
40022;SDS011;25713;-35.352;149.036;2023-11-22T11:26:57;6.70;;;3.80;;
40022;SDS011;25713;-35.352;149.036;2023-11-22T11:29:32;6.43;;;4.40;;
40022;SDS011;25713;-35.352;149.036;2023-11-22T11:32:06;7.70;;;4.72;;
40022;SDS011;25713;-35.352;149.036;2023-11-22T11:34:47;5.10;;;4.50;;
40022;SDS011;25713;-35.352;149.036;2023-11-22T11:37:18;6.75;;;4.47;;
40022;SDS011;25713;-35.352;149.036;2023-11-22T11:39:48;6.93;;;4.63;;
40022;SDS011;25713;-35.352;149.036;2023-11-22T11:42:18;7.00;;;4.88;;
40022;SDS011;25713;-35.352;149.036;2023-11-22T11:44:52;6.78;;;4.82;;
40022;SDS011;25713;-35.352;149.036;2023-11-22T11:47:36;5.35;;;4.47;;
40022;SDS011;25713;-35.352;149.036;2023-11-22T11:50:06;7.93;;;4.72;;
40022;SDS011;25713;-35.352;149.036;2023-11-22T11:52:38;6.93;;;4.40;;
40022;SDS011;25713;-35.352;149.036;2023-11-22T11:57:37;7.18;;;3.88;;
40022;SDS011;25713;-35.352;149.036;2023-11-22T12:00:07;5.88;;;4.32;;
40022;SDS011;25713;-35.352;149.036;2023-11-22T12:02:42;7.95;;;4.78;;
40022;SDS011;25713;-35.352;149.036;2023-11-22T12:05:12;5.22;;;4.35;;
40022;SDS011;25713;-35.352;149.036;2023-11-22T12:07:42;5.85;;;4.32;;
40022;SDS011;25713;-35.352;149.036;2023-11-22T12:10:14;7.75;;;4.93;;
40022;SDS011;25713;-35.352;149.036;2023-11-22T12:12:44;7.40;;;4.80;;
40022;SDS011;25713;-35.352;149.036;2023-11-22T12:15:14;7.95;;;4.45;;
40022;SDS011;25713;-35.352;149.036;2023-11-22T12:17:46;5.53;;;4.40;;
40022;SDS011;25713;-35.352;149.036;2023-11-22T12:20:17;6.55;;;4.40;;
40022;SDS011;25713;-35.352;149.036;2023-11-22T12:22:47;9.02;;;5.15;;
40022;SDS011;25713;-35.352;149.036;2023-11-22T12:25:17;9.02;;;4.63;;
40022;SDS011;25713;-35.352;149.036;2023-11-22T12:27:47;7.65;;;4.85;;
40022;SDS011;25713;-35.352;149.036;2023-11-22T12:30:28;5.75;;;4.07;;
40022;SDS011;25713;-35.352;149.036;2023-11-22T12:33:03;6.57;;;4.75;;
40022;SDS011;25713;-35.352;149.036;2023-11-22T12:35:33;5.43;;;3.92;;
40022;SDS011;25713;-35.352;149.036;2023-11-22T12:38:05;12.88;;;4.70;;
40022;SDS011;25713;-35.352;149.036;2023-11-22T12:40:35;5.50;;;4.10;;
40022;SDS011;25713;-35.352;149.036;2023-11-22T12:43:05;5.90;;;3.70;;
40022;SDS011;25713;-35.352;149.036;2023-11-22T12:45:40;6.72;;;4.35;;
40022;SDS011;25713;-35.352;149.036;2023-11-22T12:48:25;6.68;;;4.65;;
40022;SDS011;25713;-35.352;149.036;2023-11-22T12:50:55;5.15;;;3.85;;
40022;SDS011;25713;-35.352;149.036;2023-11-22T12:53:25;6.07;;;4.15;;
40022;SDS011;25713;-35.352;149.036;2023-11-22T12:55:55;6.78;;;3.88;;
40022;SDS011;25713;-35.352;149.036;2023-11-22T12:58:25;8.55;;;4.13;;
40022;SDS011;25713;-35.352;149.036;2023-11-22T13:00:55;5.43;;;4.40;;
40022;SDS011;25713;-35.352;149.036;2023-11-22T13:03:31;7.70;;;3.90;;
40022;SDS011;25713;-35.352;149.036;2023-11-22T13:06:01;6.28;;;4.20;;
40022;SDS011;25713;-35.352;149.036;2023-11-22T13:08:32;5.80;;;4.00;;
40022;SDS011;25713;-35.352;149.036;2023-11-22T13:11:02;5.05;;;3.83;;
40022;SDS011;25713;-35.352;149.036;2023-11-22T13:13:32;5.18;;;3.83;;
40022;SDS011;25713;-35.352;149.036;2023-11-22T13:16:01;6.78;;;4.00;;
40022;SDS011;25713;-35.352;149.036;2023-11-22T13:21:19;6.32;;;3.97;;
40022;SDS011;25713;-35.352;149.036;2023-11-22T13:23:48;3.97;;;3.50;;
40022;SDS011;25713;-35.352;149.036;2023-11-22T13:26:18;8.52;;;4.20;;
40022;SDS011;25713;-35.352;149.036;2023-11-22T13:28:48;8.18;;;3.75;;
40022;SDS011;25713;-35.352;149.036;2023-11-22T13:31:21;7.85;;;4.07;;
40022;SDS011;25713;-35.352;149.036;2023-11-22T13:33:53;6.18;;;3.83;;
40022;SDS011;25713;-35.352;149.036;2023-11-22T13:36:22;6.53;;;4.05;;
40022;SDS011;25713;-35.352;149.036;2023-11-22T13:38:52;6.40;;;3.70;;
40022;SDS011;25713;-35.352;149.036;2023-11-22T13:41:22;5.55;;;3.58;;
40022;SDS011;25713;-35.352;149.036;2023-11-22T13:46:23;5.22;;;3.60;;
40022;SDS011;25713;-35.352;149.036;2023-11-22T13:48:55;5.55;;;3.47;;
40022;SDS011;25713;-35.352;149.036;2023-11-22T13:51:25;4.75;;;3.50;;
40022;SDS011;25713;-35.352;149.036;2023-11-22T13:53:55;4.97;;;3.47;;
40022;SDS011;25713;-35.352;149.036;2023-11-22T13:56:24;4.85;;;3.53;;
40022;SDS011;25713;-35.352;149.036;2023-11-22T13:58:54;4.65;;;3.30;;
40022;SDS011;25713;-35.352;149.036;2023-11-22T14:01:30;4.97;;;3.30;;
40022;SDS011;25713;-35.352;149.036;2023-11-22T14:04:02;6.70;;;3.78;;
40022;SDS011;25713;-35.352;149.036;2023-11-22T14:06:34;4.57;;;3.00;;
40022;SDS011;25713;-35.352;149.036;2023-11-22T14:09:07;5.57;;;3.28;;
40022;SDS011;25713;-35.352;149.036;2023-11-22T14:11:37;5.00;;;3.78;;
40022;SDS011;25713;-35.352;149.036;2023-11-22T14:14:06;5.10;;;3.35;;
40022;SDS011;25713;-35.352;149.036;2023-11-22T14:16:39;5.32;;;3.60;;
40022;SDS011;25713;-35.352;149.036;2023-11-22T14:19:11;5.60;;;3.60;;
40022;SDS011;25713;-35.352;149.036;2023-11-22T14:21:44;5.60;;;3.28;;
40022;SDS011;25713;-35.352;149.036;2023-11-22T14:24:13;6.15;;;3.20;;
40022;SDS011;25713;-35.352;149.036;2023-11-22T14:26:43;5.20;;;3.20;;
40022;SDS011;25713;-35.352;149.036;2023-11-22T14:29:13;4.40;;;3.78;;
40022;SDS011;25713;-35.352;149.036;2023-11-22T14:31:43;4.57;;;3.17;;
40022;SDS011;25713;-35.352;149.036;2023-11-22T14:34:14;4.50;;;3.33;;
40022;SDS011;25713;-35.352;149.036;2023-11-22T14:36:45;4.22;;;3.20;;
40022;SDS011;25713;-35.352;149.036;2023-11-22T14:39:14;4.72;;;2.80;;